Tiempo atmosférico en la estación meteorológica de Morales del Toro, Zamora (710 m.)



Fecha
DESCASC
Temp. máxima en grados centígrados (hora)
DESCASC
Temp. mínima en grados centígrados (hora)
DESCASC
Temp. media en grados centígrados
DESCASC
Racha de viento máxima en m/sg (hora)
DESCASC
Velocidad máxima media en intervalos de 10 minutos(hora)
DESCASC
Precipitaciones diarias en mm
DESCASC
Precipitaciones de 00:00 a 06:00 en mm
DESCASC
Precipitaciones de 06:00 a 12:00 en mm
DESCASC
Precipitaciones de 12:00 a 18:00 en mm
DESCASC
Precipitaciones de 18:00 a 24:00 en mm
DESCASC
14-12-2019 11.5 (15:40) 7.5 (01:40) 9.5 12.5 (14:30) 9.44 (14:40) 0.2 0 0 0.2 0
13-12-2019 13.8 (14:10) 7.9 (23:59) 10.9 18.61 (01:50) 14.17 (03:00) 0 0 0 0 0
12-12-2019 11 (22:20) 3.9 (00:00) 7.5 18.89 (13:50) 14.44 (16:30) 0 0 0 0 0
11-12-2019 10.4 (15:20) -0.6 (-00:0) 4.9 10.56 (13:30) 8.06 (13:20) 1.2 0 1.2 0 0
10-12-2019 3.9 (16:50) -0.2 (09:20) 1.9 4.44 (03:00) 3.06 (03:00) 0.2 0 0.2 0 0
09-12-2019 11.2 (15:00) 0.5 (23:40) 5.8 6.39 (08:30) 5 (07:30) 0 0 0 0 0
08-12-2019 10 (16:50) -0.6 (-00:0) 4.7 7.5 (19:10) 5 (19:10) 1.4 0 0.2 1.2 0
07-12-2019 9.1 (16:30) 0.4 (00:00) 4.8 5 (11:20) 3.06 (11:10) 0 0 0 0 0
06-12-2019 13.4 (15:10) -0.5 (-00:0) 6.4 5.28 (00:40) 4.17 (00:40) 0 0 0 0 0
05-12-2019 11.5 (15:30) 1.5 (00:00) 6.5 15 (12:10) 12.22 (12:10) 0 0 0 0 0
04-12-2019 10.4 (15:50) -1.6 (05:50) 4.4 10.28 (21:00) 7.78 (21:10) 0 0 0 0 0
03-12-2019 7.9 (15:10) -1 (-00:0) 3.5 11.11 (10:40) 8.61 (13:00) 0 0 0 0 0
02-12-2019 9.5 (14:50) 1.9 (00:00) 5.7 18.33 (14:40) 13.89 (14:40) 0.2 0 0 0.2 0
01-12-2019 10.1 (14:50) 4.3 (00:00) 7.2 9.72 (23:20) 6.67 (15:30) 2.6 1 1.4 0.2 0
30-11-2019 12.8 (11:30) 4.6 (00:00) 8.7 14.72 (14:50) 8.89 (10:50) 3.6 0.2 0.2 3.2 0
29-11-2019 16.3 (14:00) 11.1 (00:00) 13.7 11.39 (01:20) 7.78 (01:30) 4.8 0 0 0 4.8
28-11-2019 13.3 (14:40) 9 (00:00) 11.2 14.17 (15:00) 10.56 (15:00) 0 0 0 0 0
27-11-2019 12.2 (13:40) 7.3 (00:00) 9.8 16.94 (14:10) 12.22 (14:10) 0.4 0.2 0 0 0.2
26-11-2019 15.3 (15:40) 8.4 (00:00) 11.8 18.06 (17:10) 12.78 (17:20) 1.8 0 0.6 0.2 1
25-11-2019 14 (13:00) 8.5 (23:40) 11.3 12.78 (12:50) 9.17 (11:50) 2.2 1.4 0.8 0 0
24-11-2019 9.7 (16:30) 2.6 (00:00) 6.1 10.56 (14:40) 8.06 (14:40) 1.2 0 0 0 1.2
23-11-2019 11.9 (15:30) 3.8 (00:00) 7.8 20 (04:30) 13.89 (01:30) 0.2 0.2 0 0 0
22-11-2019 13.5 (13:30) 6.4 (00:00) 10 19.17 (15:10) 14.17 (15:20) 7 0.8 2.6 3.4 0.2
21-11-2019 11.8 (15:30) 3.7 (00:00) 7.8 9.72 (15:00) 7.22 (15:00) 0.4 0.4 0 0 0
20-11-2019 7.6 (17:10) 4 (23:50) 5.8 6.11 (20:50) 4.17 (21:20) 10.6 0.2 6.8 3.6 0
19-11-2019 8.9 (15:50) -2 (-00:0) 3.4 3.33 (19:30) 2.5 (00:20) 0 0 0 0 0
18-11-2019 12 (15:10) -0.7 (-00:0) 5.7 6.11 (02:10) 5 (02:10) 0 0 0 0 0
17-11-2019 11.8 (15:50) 1.6 (00:00) 6.7 15.83 (15:20) 10.56 (14:40) 3 0 3 0 0
16-11-2019 10.7 (14:50) -1.9 (-00:0) 4.4 10.56 (17:10) 7.78 (17:50) 0 0 0 0 0

Gráficas

Temp. máximas Temp. mínimas Temp. medias Precipitaciones Rachas de viento máximas Velocidades máximas media en intervalos de 10 minutos

Datos horarios

Fecha y hora oficial Temperatura (ºC) Velocidad del viento (km/h) Dirección del viento Racha (km/h) Dirección de racha Precipitación (mm) Presión (hPa) Tendencia (hPa) Humedad (%)
2019-12-15 23:00:00 8.7 15 Sudeste 27 Sudeste 0 -- -- 86
2019-12-15 22:00:00 9.4 19 Sur 46 Sudoeste 0 -- -- 83
2019-12-15 21:00:00 10.3 25 Sudoeste 39 Sur 0 -- -- 80
2019-12-15 20:00:00 9.9 23 Sudoeste 39 Sur 0 -- -- 82
2019-12-15 19:00:00 10.3 24 Sur 35 Sur 0 -- -- 81
2019-12-15 18:00:00 10.4 23 Sur 36 Sur 0 -- -- 80
2019-12-15 17:00:00 11.4 21 Sur 33 Sur 0 -- -- 77
2019-12-15 16:00:00 12.8 22 Sudoeste 40 Sudoeste 0 -- -- 68
2019-12-15 15:00:00 12.8 24 Sudoeste 46 Sudoeste 0 -- -- 65
2019-12-15 14:00:00 12.4 24 Sudoeste 44 Sudoeste 0 -- -- 68
2019-12-15 13:00:00 12.4 32 Sudoeste 48 Sudoeste 0 -- -- 68
2019-12-15 12:00:00 11.6 30 Sudoeste 43 Sudoeste 0 -- -- 72
2019-12-15 11:00:00 11.1 24 Sudoeste 38 Sudoeste 0 -- -- 75
2019-12-15 10:00:00 9.1 18 Sur 33 Sur 0 -- -- 81
2019-12-15 09:00:00 8.2 20 Sur 28 Sur 0 -- -- 85
2019-12-15 08:00:00 8.5 18 Sudoeste 29 Sudoeste 0 -- -- 82
2019-12-15 07:00:00 8.5 13 Sudoeste 20 Sudoeste 0 -- -- 83
2019-12-15 06:00:00 8.8 16 Sudoeste 22 Sudoeste 0 -- -- 84
2019-12-15 05:00:00 8.6 13 Sudoeste 28 Sudoeste 0 -- -- 85
2019-12-15 04:00:00 9.2 22 Sudoeste 31 Sudoeste 0 -- -- 81
2019-12-15 03:00:00 8.6 16 Sudoeste 24 Sudoeste 0 -- -- 84
2019-12-15 02:00:00 8.8 14 Sudoeste 22 Sudoeste 0 -- -- 86
2019-12-15 01:00:00 8.9 13 Sudoeste 26 Sudoeste 0 -- -- 86
2019-12-15 00:00:00 9 22 Sudoeste 32 Sudoeste 0 -- -- 85
2019-12-14 23:00:00 9.2 17 Sudoeste 33 Sudoeste 0 -- -- 86
2019-12-14 22:00:00 9.2 25 Sudoeste 32 Sudoeste 0 -- -- 85
2019-12-14 21:00:00 9 18 Sudoeste 27 Sudoeste 0 -- -- 86
2019-12-14 20:00:00 9.2 18 Sudoeste 25 Sudoeste 0 -- -- 87
2019-12-14 19:00:00 8.9 15 Sudoeste 32 Sudoeste 0 -- -- 91
2019-12-14 18:00:00 9.4 18 Sudoeste 41 Sudoeste 0.2 -- -- 93
2019-12-14 17:00:00 11 27 Sudoeste 37 Sudoeste 0 -- -- 78
2019-12-14 16:00:00 11.3 26 Sudoeste 37 Sudoeste 0 -- -- 73
2019-12-14 15:00:00 10.6 27 Sudoeste 45 Sudoeste 0 -- -- 84
2019-12-14 14:00:00 11.2 30 Sudoeste 41 Sudoeste 0 -- -- 82
2019-12-14 13:00:00 10.7 19 Sudoeste 32 Sudoeste 0 -- -- 80
2019-12-14 12:00:00 10.5 23 Sudoeste 31 Sudoeste 0 -- -- 82
2019-12-14 11:00:00 9.7 22 Sudoeste 31 Sudoeste 0 -- -- 86
2019-12-14 10:00:00 9.1 15 Sudoeste 26 Sudoeste 0 -- -- 87
2019-12-14 09:00:00 8.5 21 Sudoeste 32 Sudoeste 0 -- -- 88
2019-12-14 08:00:00 8.7 22 Sudoeste 34 Sudoeste 0 -- -- 86
2019-12-14 07:00:00 8.7 22 Sudoeste 34 Sudoeste 0 -- -- 86
2019-12-14 06:00:00 8.7 21 Sudoeste 34 Sudoeste 0 -- -- 85
2019-12-14 05:00:00 8.1 27 Sudoeste 36 Sudoeste 0 -- -- 89
2019-12-14 04:00:00 8 23 Sudoeste 33 Sudoeste 0 -- -- 90
2019-12-14 03:00:00 8.5 29 Sudoeste 38 Sudoeste 0 -- -- 88
2019-12-14 02:00:00 8.2 23 Sudoeste 34 Sudoeste 0 -- -- 88
2019-12-14 01:00:00 7.7 21 Sudoeste 30 Sudoeste 0 -- -- 88
2019-12-14 00:00:00 7.9 17 Sudoeste 35 Sudoeste 0 -- -- 89
2019-12-13 23:00:00 8.8 15 Oeste 41 Oeste 0 -- -- 87
2019-12-13 22:00:00 9.8 28 Sudoeste 36 Sudoeste 0 -- -- 87
2019-12-13 21:00:00 10.5 24 Sudoeste 43 Sudoeste 0 -- -- 87
2019-12-13 20:00:00 10.4 27 Sudoeste 39 Sudoeste 0 -- -- 88
2019-12-13 19:00:00 10.6 32 Sudoeste 45 Sudoeste 0 -- -- 87
2019-12-13 18:00:00 11.3 33 Sudoeste 53 Sudoeste 0 -- -- 84
2019-12-13 17:00:00 11.9 39 Sudoeste 62 Oeste 0 -- -- 83
2019-12-13 16:00:00 12.7 44 Oeste 63 Sudoeste 0 -- -- 82
2019-12-13 15:00:00 13.6 40 Oeste 63 Oeste 0 -- -- 78
2019-12-13 14:00:00 13.7 45 Oeste 62 Sudoeste 0 -- -- 78
2019-12-13 13:00:00 13.1 40 Oeste 57 Sudoeste 0 -- -- 79
2019-12-13 12:00:00 12.5 44 Oeste 63 Sudoeste 0 -- -- 81
2019-12-13 11:00:00 11.6 45 Oeste 60 Sudoeste 0 -- -- 82
2019-12-13 10:00:00 10.7 39 Oeste 58 Sudoeste 0 -- -- 83
2019-12-13 09:00:00 10.2 44 Sudoeste 63 Oeste 0 -- -- 81
2019-12-13 08:00:00 10 41 Sudoeste 59 Oeste 0 -- -- 81
2019-12-13 07:00:00 10.3 41 Sudoeste 55 Oeste 0 -- -- 81
2019-12-13 06:00:00 10.6 39 Sudoeste 57 Sudoeste 0 -- -- 84
2019-12-13 05:00:00 10.8 40 Sudoeste 55 Sudoeste 0 -- -- 84
2019-12-13 04:00:00 11.1 42 Oeste 63 Sudoeste 0 -- -- 85
2019-12-13 03:00:00 11.2 51 Sudoeste 65 Sudoeste 0 -- -- 86
2019-12-13 02:00:00 11.3 46 Sudoeste 67 Oeste 0 -- -- 86
2019-12-13 01:00:00 11.4 45 Oeste 58 Oeste 0 -- -- 87
2019-12-13 00:00:00 11 40 Oeste 56 Sudoeste 0 -- -- 88
2019-12-12 23:00:00 10.8 37 Sudoeste 57 Sudoeste 0 -- -- 90
2019-12-12 22:00:00 10.9 41 Sudoeste 53 Sudoeste 0 -- -- 88
2019-12-12 21:00:00 10.5 36 Sudoeste 59 Sudoeste 0 -- -- 89
2019-12-12 20:00:00 10.2 40 Oeste 59 Sudoeste 0 -- -- 89
2019-12-12 19:00:00 9.7 41 Oeste 64 Sudoeste 0 -- -- 90
2019-12-12 18:00:00 9.4 46 Sudoeste 67 Sudoeste 0 -- -- 89
2019-12-12 17:00:00 9.2 49 Sudoeste 68 Sudoeste 0 -- -- 87
2019-12-12 16:00:00 8.6 46 Sudoeste 62 Sudoeste 0 -- -- 87
2019-12-12 15:00:00 8.1 42 Sudoeste 65 Sudoeste 0 -- -- 89
2019-12-12 14:00:00 8.2 45 Sudoeste 68 Sudoeste 0 -- -- 87
2019-12-12 13:00:00 7.6 40 Sudoeste 57 Sudoeste 0 -- -- 88
2019-12-12 12:00:00 7.5 35 Sudoeste 49 Sudoeste 0 -- -- 87
2019-12-12 11:00:00 6.9 36 Sudoeste 50 Sudoeste 0 -- -- 88
2019-12-12 10:00:00 6.5 33 Sudoeste 45 Sudoeste 0 -- -- 89
2019-12-12 09:00:00 6 25 Sudoeste 41 Sudoeste 0 -- -- 91
2019-12-12 08:00:00 5.9 28 Sudoeste 42 Sudoeste 0 -- -- 91
2019-12-12 07:00:00 5.5 28 Sudoeste 41 Sudoeste 0 -- -- 92
2019-12-12 06:00:00 4.8 18 Sudoeste 32 Sudoeste 0 -- -- 93
2019-12-12 05:00:00 4.6 24 Sudoeste 48 Sudoeste 0 -- -- 92
2019-12-12 04:00:00 4.7 34 Sudoeste 45 Sudoeste 0 -- -- 91
2019-12-12 03:00:00 4.5 22 Sudoeste 38 Sudoeste 0 -- -- 93
2019-12-12 02:00:00 4.3 28 Sudoeste 42 Sudoeste 0 -- -- 92
2019-12-12 01:00:00 4.3 25 Sudoeste 33 Sudoeste 0 -- -- 92
2019-12-12 00:00:00 3.9 19 Sudoeste 32 Sudoeste 0 -- -- 92
2019-12-11 23:00:00 4.3 24 Sudoeste 33 Oeste 0 -- -- 89
2019-12-11 22:00:00 4.5 26 Sudoeste 33 Sudoeste 0 -- -- 85
2019-12-11 21:00:00 4.1 19 Sudoeste 31 Oeste 0 -- -- 86
2019-12-11 20:00:00 4.6 21 Sudoeste 29 Sudoeste 0 -- -- 81
2019-12-11 19:00:00 5.6 22 Sudoeste 34 Oeste 0 -- -- 75
2019-12-11 18:00:00 6.2 22 Oeste 36 Oeste 0 -- -- 72
2019-12-11 17:00:00 9.3 24 Oeste 36 Oeste 0 -- -- 60
2019-12-11 16:00:00 9.5 19 Oeste 27 Noroeste 0 -- -- 65
2019-12-11 15:00:00 8.9 15 Noroeste 28 Noroeste 0 -- -- 59
2019-12-11 14:00:00 8.7 21 Noroeste 38 Noroeste 0 -- -- 58
2019-12-11 13:00:00 9.7 23 Noroeste 33 Oeste 0 -- -- 66
2019-12-11 12:00:00 8.2 19 Oeste 28 Oeste 0 -- -- 91
2019-12-11 11:00:00 5.5 17 Oeste 27 Oeste 0 -- -- 100
2019-12-11 10:00:00 4.5 13 Oeste 27 Oeste 0 -- -- 100
2019-12-11 09:00:00 3.9 14 Oeste 27 Sudoeste 0 -- -- 100
2019-12-11 08:00:00 3.7 19 Sudoeste 28 Sudoeste 0.2 -- -- 100
2019-12-11 07:00:00 2.5 7 Sudoeste 13 Sudoeste 1 -- -- 100
2019-12-11 06:00:00 1.1 2 Nordeste 6 Nordeste 0 -- -- 100
2019-12-11 05:00:00 0.4 4 Este 7 Nordeste 0 -- -- 100
2019-12-11 04:00:00 -0.3 7 Nordeste 10 Nordeste 0 -- -- 100
2019-12-11 03:00:00 -0.5 0 Calma 6 Nordeste 0 -- -- 100
2019-12-11 02:00:00 0.2 3 Sudeste 5 Sudeste 0 -- -- 100
2019-12-11 01:00:00 0.5 0 Calma 5 Oeste 0 -- -- 100
2019-12-11 00:00:00 1.3 4 Nordeste 7 Nordeste 0 -- -- 100
2019-12-10 23:00:00 2.6 4 Este 8 Sudeste 0 -- -- 100
2019-12-10 22:00:00 3 5 Este 9 Sudeste 0 -- -- 100
2019-12-10 21:00:00 3 5 Este 8 Este 0 -- -- 100
2019-12-10 20:00:00 3.2 2 Nordeste 7 Nordeste 0 -- -- 100
2019-12-10 19:00:00 3.2 5 Norte 8 Este 0 -- -- 100
2019-12-10 18:00:00 3.6 5 Este 8 Este 0 -- -- 100
2019-12-10 17:00:00 3.9 4 Sudeste 12 Este 0 -- -- 100
2019-12-10 16:00:00 3.2 6 Sudeste 13 Sudeste 0 -- -- 100
2019-12-10 15:00:00 3.3 9 Sudeste 13 Sudeste 0 -- -- 99
2019-12-10 14:00:00 3 6 Sudeste 9 Sudeste 0 -- -- 99
2019-12-10 13:00:00 2.3 3 Sur 7 Sudeste 0 -- -- 99
2019-12-10 12:00:00 2 2 Sur 5 Sudoeste 0 -- -- 99
2019-12-10 11:00:00 1 0 Calma 5 Noroeste 0.2 -- -- 99
2019-12-10 10:00:00 0.3 0 Calma 5 Este 0 -- -- 100
2019-12-10 09:00:00 -0.1 2 Nordeste 8 Este 0 -- -- 100
2019-12-10 08:00:00 0.6 5 Este 9 Este 0 -- -- 100
2019-12-10 07:00:00 1 3 Este 5 Sudeste 0 -- -- 100
2019-12-10 06:00:00 1.3 4 Sudeste 10 Este 0 -- -- 100
2019-12-10 05:00:00 1.7 5 Este 8 Este 0 -- -- 100
2019-12-10 04:00:00 1.5 8 Este 15 Este 0 -- -- 99
2019-12-10 03:00:00 1.6 11 Este 16 Este 0 -- -- 100
2019-12-10 02:00:00 0.9 4 Nordeste 9 Nordeste 0 -- -- 99
2019-12-10 01:00:00 0.9 2 Norte 8 Nordeste 0 -- -- 98
2019-12-10 00:00:00 1.1 0 Calma 5 Sudoeste 0 -- -- 97
2019-12-09 23:00:00 1.4 3 Norte 13 Nordeste 0 -- -- 96
2019-12-09 22:00:00 1.9 6 Nordeste 9 Nordeste 0 -- -- 96
2019-12-09 21:00:00 3.3 4 Nordeste 10 Este 0 -- -- 95
2019-12-09 20:00:00 4.3 4 Nordeste 9 Noroeste 0 -- -- 96
2019-12-09 19:00:00 6 6 Noroeste 7 Noroeste 0 -- -- 92
2019-12-09 18:00:00 7.7 5 Noroeste 8 Noroeste 0 -- -- 87
2019-12-09 17:00:00 9.1 7 Noroeste 8 Noroeste 0 -- -- 84
2019-12-09 16:00:00 10.1 6 Noroeste 13 Noroeste 0 -- -- 74
2019-12-09 15:00:00 11.2 9 Oeste 13 Oeste 0 -- -- 66
2019-12-09 14:00:00 10.3 10 Oeste 19 Oeste 0 -- -- 73
2019-12-09 13:00:00 9 15 Oeste 23 Oeste 0 -- -- 80
2019-12-09 12:00:00 6.2 13 Sudoeste 18 Sudoeste 0 -- -- 93
2019-12-09 11:00:00 4.6 13 Sudoeste 18 Sudoeste 0 -- -- 97
2019-12-09 10:00:00 4.3 14 Sudoeste 21 Sudoeste 0 -- -- 98
2019-12-09 09:00:00 3.9 17 Sudoeste 23 Oeste 0 -- -- 98
2019-12-09 08:00:00 4.7 15 Oeste 23 Sudoeste 0 -- -- 97
2019-12-09 07:00:00 5.2 9 Oeste 19 Oeste 0 -- -- 97
2019-12-09 06:00:00 5.7 12 Oeste 18 Oeste 0 -- -- 97
2019-12-09 05:00:00 6 13 Oeste 20 Sudoeste 0 -- -- 98
2019-12-09 04:00:00 6.6 13 Sudoeste 21 Sudoeste 0 -- -- 99
2019-12-09 03:00:00 7.1 14 Sudoeste 19 Oeste 0 -- -- 99
2019-12-09 02:00:00 7.6 10 Sudoeste 15 Sudoeste 0 -- -- 100
2019-12-09 01:00:00 7.5 6 Oeste 12 Oeste 0 -- -- 99
2019-12-09 00:00:00 7.8 7 Oeste 12 Oeste 0 -- -- 100
2019-12-08 23:00:00 8.4 7 Oeste 13 Oeste 0 -- -- 100
2019-12-08 22:00:00 9 8 Oeste 16 Oeste 0 -- -- 99
2019-12-08 21:00:00 9.4 12 Oeste 23 Oeste 0 -- -- 100
2019-12-08 20:00:00 9.6 12 Oeste 27 Oeste 0 -- -- 99
2019-12-08 19:00:00 9.8 16 Oeste 26 Oeste 0 -- -- 99
2019-12-08 18:00:00 10 10 Oeste 22 Sudoeste 0 -- -- 100
2019-12-08 17:00:00 10 11 Oeste 16 Oeste 0.2 -- -- 100
2019-12-08 16:00:00 9.4 10 Sudoeste 17 Oeste 0 -- -- 100
2019-12-08 15:00:00 8.3 5 Sudoeste 11 Sudoeste 0 -- -- 99
2019-12-08 14:00:00 7.5 4 Sudoeste 13 Sur 1 -- -- 100
2019-12-08 13:00:00 6.8 5 Noroeste 8 Noroeste 0 -- -- 99
2019-12-08 12:00:00 5.8 4 Este 13 Este 0 -- -- 99
2019-12-08 11:00:00 4.6 8 Este 12 Este 0 -- -- 100
2019-12-08 10:00:00 3.3 8 Este 12 Este 0 -- -- 100
2019-12-08 09:00:00 2.3 5 Nordeste 7 Nordeste 0 -- -- 100
2019-12-08 08:00:00 1.4 3 Este 7 Nordeste 0.2 -- -- 100
2019-12-08 07:00:00 0.4 5 Este 9 Nordeste 0 -- -- 100
2019-12-08 06:00:00 -0.4 5 Nordeste 6 Nordeste 0 -- -- 100
2019-12-08 05:00:00 -0.5 3 Nordeste 6 Este 0 -- -- 100
2019-12-08 04:00:00 -0.4 4 Nordeste 6 Nordeste 0 -- -- 100
2019-12-08 03:00:00 -0.5 4 Nordeste 8 Nordeste 0 -- -- 100
2019-12-08 02:00:00 0.3 4 Nordeste 5 Nordeste 0 -- -- 99
2019-12-08 01:00:00 0.9 2 Nordeste 9 Este 0 -- -- 99
2019-12-08 00:00:00 0.8 6 Nordeste 9 Nordeste 0 -- -- 99
2019-12-07 23:00:00 1.6 2 Este 8 Nordeste 0 -- -- 99
2019-12-07 22:00:00 1.9 8 Nordeste 10 Nordeste 0 -- -- 99
2019-12-07 21:00:00 2.9 9 Nordeste 12 Norte 0 -- -- 99
2019-12-07 20:00:00 3.8 6 Nordeste 9 Nordeste 0 -- -- 99
2019-12-07 19:00:00 4.3 2 Norte 4 Nordeste 0 -- -- 99
2019-12-07 18:00:00 5.2 0 Calma 4 Sudoeste 0 -- -- 97
2019-12-07 17:00:00 8.3 2 Oeste 4 Oeste 0 -- -- 92
2019-12-07 16:00:00 6.7 0 Calma 6 Sur 0 -- -- 95
2019-12-07 15:00:00 5 2 Sur 6 Sudeste 0 -- -- 97
2019-12-07 14:00:00 4.8 2 Nordeste 4 Norte 0 -- -- 97
2019-12-07 13:00:00 3.6 2 Sudeste 12 Sudeste 0 -- -- 98
2019-12-07 12:00:00 2.5 9 Sudeste 18 Sudeste 0 -- -- 98
2019-12-07 11:00:00 2.1 8 Este 12 Este 0 -- -- 99
2019-12-07 10:00:00 1 4 Este 6 Este 0 -- -- 99
2019-12-07 09:00:00 0.4 4 Nordeste 10 Este 0 -- -- 99
2019-12-07 08:00:00 0.7 6 Este 10 Este 0 -- -- 99
2019-12-07 07:00:00 1.4 6 Este 9 Este 0 -- -- 98
2019-12-07 06:00:00 1.4 5 Este 11 Este 0 -- -- 98
2019-12-07 05:00:00 1.9 4 Sudeste 7 Sudeste 0 -- -- 98
2019-12-07 04:00:00 2.1 4 Sudeste 7 Sudeste 0 -- -- 98
2019-12-07 03:00:00 1.7 3 Nordeste 12 Norte 0 -- -- 98
2019-12-07 02:00:00 1.1 10 Norte 13 Norte 0 -- -- 97
2019-12-07 01:00:00 1 3 Este 10 Nordeste 0 -- -- 96
2019-12-07 00:00:00 2.1 8 Nordeste 10 Nordeste 0 -- -- 97
2019-12-06 23:00:00 2.3 5 Nordeste 8 Norte 0 -- -- 96
2019-12-06 22:00:00 2.9 5 Nordeste 7 Nordeste 0 -- -- 95
2019-12-06 21:00:00 3.6 5 Nordeste 8 Norte 0 -- -- 91
2019-12-06 20:00:00 5.7 0 Calma 5 Noroeste 0 -- -- 86
2019-12-06 19:00:00 6.7 3 Noroeste 5 Oeste 0 -- -- 85
2019-12-06 18:00:00 9.1 2 Noroeste 4 Oeste 0 -- -- 76
2019-12-06 17:00:00 12.3 0 Calma 8 Oeste 0 -- -- 65
2019-12-06 16:00:00 10.6 4 Oeste 8 Sudoeste 0 -- -- 72
2019-12-06 15:00:00 12.9 3 Oeste 15 Oeste 0 -- -- 64
2019-12-06 14:00:00 11.3 6 Oeste 12 Oeste 0 -- -- 69
2019-12-06 13:00:00 10 4 Sudoeste 9 Oeste 0 -- -- 71
2019-12-06 12:00:00 8.1 3 Sudoeste 7 Sudoeste 0 -- -- 77
2019-12-06 11:00:00 5.6 2 Sudoeste 5 Sudoeste 0 -- -- 87
2019-12-06 10:00:00 2.5 2 Sudeste 6 Este 0 -- -- 97
2019-12-06 09:00:00 0.3 6 Este 9 Este 0 -- -- 99
2019-12-06 08:00:00 -0.2 7 Norte 13 Norte 0 -- -- 98
2019-12-06 07:00:00 -0.3 10 Norte 15 Norte 0 -- -- 97
2019-12-06 06:00:00 0.8 9 Nordeste 13 Noroeste 0 -- -- 96
2019-12-06 05:00:00 1 8 Noroeste 11 Noroeste 0 -- -- 96
2019-12-06 04:00:00 1.5 4 Norte 7 Nordeste 0 -- -- 96
2019-12-06 03:00:00 1.5 4 Nordeste 6 Nordeste 0 -- -- 94
2019-12-06 02:00:00 2.4 3 Noroeste 14 Nordeste 0 -- -- 96
2019-12-06 01:00:00 2.5 12 Nordeste 19 Norte 0 -- -- 92
2019-12-06 00:00:00 3.8 15 Nordeste 24 Este 0 -- -- 88
2019-12-05 23:00:00 4.8 13 Nordeste 30 Nordeste 0 -- -- 89
2019-12-05 22:00:00 4.8 20 Nordeste 26 Nordeste 0 -- -- 89
2019-12-05 21:00:00 4.6 17 Nordeste 25 Nordeste 0 -- -- 91
2019-12-05 20:00:00 4.8 15 Nordeste 24 Nordeste 0 -- -- 88
2019-12-05 19:00:00 5.5 14 Nordeste 21 Nordeste 0 -- -- 88
2019-12-05 18:00:00 7.4 9 Nordeste 26 Nordeste 0 -- -- 81
2019-12-05 17:00:00 10 22 Nordeste 36 Nordeste 0 -- -- 70
2019-12-05 16:00:00 11.5 23 Nordeste 37 Nordeste 0 -- -- 65
2019-12-05 15:00:00 11.4 25 Nordeste 36 Nordeste 0 -- -- 67
2019-12-05 14:00:00 10.9 27 Nordeste 44 Nordeste 0 -- -- 71
2019-12-05 13:00:00 9.3 38 Nordeste 54 Nordeste 0 -- -- 76
2019-12-05 12:00:00 9.1 39 Nordeste 52 Nordeste 0 -- -- 75
2019-12-05 11:00:00 8.8 34 Nordeste 45 Nordeste 0 -- -- 77
2019-12-05 10:00:00 6.9 15 Nordeste 23 Nordeste 0 -- -- 87
2019-12-05 09:00:00 4.2 8 Nordeste 17 Norte 0 -- -- 93
2019-12-05 08:00:00 2.7 12 Nordeste 15 Nordeste 0 -- -- 96
2019-12-05 07:00:00 1.6 8 Norte 10 Noroeste 0 -- -- 96
2019-12-05 06:00:00 4.2 4 Norte 14 Noroeste 0 -- -- 91
2019-12-05 05:00:00 2.9 11 Oeste 14 Oeste 0 -- -- 92
2019-12-05 04:00:00 4.4 8 Nordeste 11 Nordeste 0 -- -- 90
2019-12-05 03:00:00 5 13 Nordeste 41 Nordeste 0 -- -- 84
2019-12-05 02:00:00 3.3 0 Calma 17 Este 0 -- -- 88
2019-12-05 01:00:00 3.7 12 Este 19 Este 0 -- -- 87
2019-12-05 00:00:00 2.7 4 Noroeste 13 Norte 0 -- -- 80
2019-12-04 23:00:00 3.5 4 Este 18 Nordeste 0 -- -- 76
2019-12-04 22:00:00 4 17 Nordeste 35 Nordeste 0 -- -- 77
2019-12-04 21:00:00 5.3 27 Nordeste 37 Nordeste 0 -- -- 77
2019-12-04 20:00:00 4.2 6 Norte 12 Norte 0 -- -- 94
2019-12-04 19:00:00 5.9 4 Norte 9 Nordeste 0 -- -- 90
2019-12-04 18:00:00 6.6 8 Norte 21 Nordeste 0 -- -- 87
2019-12-04 17:00:00 8.9 10 Nordeste 24 Nordeste 0 -- -- 76
2019-12-04 16:00:00 10.3 17 Nordeste 24 Nordeste 0 -- -- 70
2019-12-04 15:00:00 9.9 13 Nordeste 23 Nordeste 0 -- -- 73
2019-12-04 14:00:00 7.6 13 Norte 19 Nordeste 0 -- -- 80
2019-12-04 13:00:00 7.2 11 Norte 15 Nordeste 0 -- -- 80
2019-12-04 12:00:00 6.5 11 Nordeste 17 Nordeste 0 -- -- 80
2019-12-04 11:00:00 4.2 4 Nordeste 13 Norte 0 -- -- 89
2019-12-04 10:00:00 0.5 8 Norte 16 Norte 0 -- -- 94
2019-12-04 09:00:00 -1.2 11 Norte 20 Nordeste 0 -- -- 96
2019-12-04 08:00:00 -1.6 8 Norte 12 Norte 0 -- -- 97
2019-12-04 07:00:00 -1.3 9 Norte 18 Noroeste 0 -- -- 96
2019-12-04 06:00:00 -1.6 12 Noroeste 17 Noroeste 0 -- -- 96
2019-12-04 05:00:00 -1.1 9 Norte 10 Nordeste 0 -- -- 95
2019-12-04 04:00:00 -0.7 6 Norte 9 Norte 0 -- -- 95
2019-12-04 03:00:00 -1.3 5 Norte 10 Noroeste 0 -- -- 95
2019-12-04 02:00:00 -0.4 2 Nordeste 6 Nordeste 0 -- -- 95
2019-12-04 01:00:00 0 6 Norte 20 Nordeste 0 -- -- 95
2019-12-04 00:00:00 -0.3 11 Nordeste 19 Nordeste 0 -- -- 95
2019-12-03 23:00:00 -0.4 8 Norte 13 Nordeste 0 -- -- 96
2019-12-03 22:00:00 -1 10 Nordeste 18 Nordeste 0 -- -- 95
2019-12-03 21:00:00 0.2 14 Nordeste 19 Nordeste 0 -- -- 93
2019-12-03 20:00:00 0.6 15 Nordeste 18 Norte 0 -- -- 93
2019-12-03 19:00:00 1.5 15 Nordeste 17 Nordeste 0 -- -- 90
2019-12-03 18:00:00 3.5 11 Nordeste 22 Nordeste 0 -- -- 83
2019-12-03 17:00:00 6.5 18 Nordeste 25 Nordeste 0 -- -- 70
2019-12-03 16:00:00 7.4 14 Nordeste 28 Nordeste 0 -- -- 68
2019-12-03 15:00:00 7.1 19 Este 30 Este 0 -- -- 66
2019-12-03 14:00:00 6.8 18 Nordeste 37 Nordeste 0 -- -- 70
2019-12-03 13:00:00 6.9 31 Este 40 Este 0 -- -- 69
2019-12-03 12:00:00 4.7 25 Nordeste 36 Nordeste 0 -- -- 76
2019-12-03 11:00:00 4.9 23 Nordeste 40 Nordeste 0 -- -- 77
2019-12-03 10:00:00 2.5 10 Nordeste 15 Nordeste 0 -- -- 87
2019-12-03 09:00:00 0.7 13 Nordeste 21 Nordeste 0 -- -- 89
2019-12-03 08:00:00 0.5 13 Nordeste 25 Nordeste 0 -- -- 91
2019-12-03 07:00:00 1.1 18 Nordeste 36 Nordeste 0 -- -- 87
2019-12-03 06:00:00 1.2 18 Nordeste 30 Nordeste 0 -- -- 85
2019-12-03 05:00:00 1.7 20 Nordeste 30 Nordeste 0 -- -- 81
2019-12-03 04:00:00 0.7 15 Nordeste 21 Nordeste 0 -- -- 88
2019-12-03 03:00:00 0.9 9 Nordeste 20 Nordeste 0 -- -- 88
2019-12-03 02:00:00 0.2 8 Nordeste 23 Nordeste 0 -- -- 91
2019-12-03 01:00:00 0.9 14 Nordeste 29 Nordeste 0 -- -- 88
2019-12-03 00:00:00 1.9 24 Nordeste 39 Nordeste 0 -- -- 84
2019-12-02 23:00:00 2.1 25 Nordeste 42 Nordeste 0 -- -- 83
2019-12-02 22:00:00 2.7 31 Nordeste 48 Nordeste 0 -- -- 83
2019-12-02 21:00:00 3.4 32 Nordeste 45 Nordeste 0 -- -- 82
2019-12-02 20:00:00 4.2 36 Nordeste 54 Nordeste 0 -- -- 81
2019-12-02 19:00:00 5 40 Nordeste 52 Nordeste 0 -- -- 82
2019-12-02 18:00:00 6.1 33 Nordeste 50 Nordeste 0 -- -- 80
2019-12-02 17:00:00 8 40 Nordeste 53 Nordeste 0 -- -- 73
2019-12-02 16:00:00 8 37 Nordeste 52 Nordeste 0 -- -- 76
2019-12-02 15:00:00 8.8 39 Nordeste 66 Nordeste 0 -- -- 72
2019-12-02 14:00:00 8.9 41 Nordeste 56 Nordeste 0.2 -- -- 71
2019-12-02 13:00:00 8.6 35 Nordeste 53 Nordeste 0 -- -- 75
2019-12-02 12:00:00 7.8 39 Nordeste 54 Nordeste 0 -- -- 77
2019-12-02 11:00:00 8.1 31 Nordeste 42 Nordeste 0 -- -- 80
2019-12-02 10:00:00 5.9 24 Nordeste 35 Nordeste 0 -- -- 88
2019-12-02 09:00:00 4.3 17 Nordeste 26 Nordeste 0 -- -- 91
2019-12-02 08:00:00 3.8 22 Nordeste 36 Nordeste 0 -- -- 93
2019-12-02 07:00:00 3.6 27 Nordeste 37 Nordeste 0 -- -- 92
2019-12-02 06:00:00 3.3 19 Nordeste 34 Nordeste 0 -- -- 92
2019-12-02 05:00:00 3.5 26 Nordeste 39 Nordeste 0 -- -- 91
2019-12-02 04:00:00 3.9 28 Nordeste 46 Nordeste 0 -- -- 89
2019-12-02 03:00:00 4.3 34 Nordeste 42 Nordeste 0 -- -- 89
2019-12-02 02:00:00 4.3 19 Nordeste 30 Nordeste 0 -- -- 91
2019-12-02 01:00:00 4.9 22 Nordeste 32 Nordeste 0 -- -- 90
2019-12-02 00:00:00 5.3 22 Nordeste 35 Nordeste 0 -- -- 89
2019-12-01 23:00:00 5.3 22 Nordeste 31 Nordeste 0 -- -- 92
2019-12-01 22:00:00 4.6 14 Nordeste 19 Norte 0 -- -- 97
2019-12-01 21:00:00 4.9 12 Norte 16 Norte 0 -- -- 95
2019-12-01 20:00:00 5.9 15 Norte 22 Norte 0 -- -- 93
2019-12-01 19:00:00 6.5 10 Nordeste 22 Nordeste 0 -- -- 91
2019-12-01 18:00:00 6.9 15 Nordeste 26 Nordeste 0 -- -- 90
2019-12-01 17:00:00 7 22 Nordeste 30 Nordeste 0.2 -- -- 91
2019-12-01 16:00:00 7.9 24 Nordeste 31 Nordeste 0 -- -- 89
2019-12-01 15:00:00 9.5 20 Nordeste 26 Este 0 -- -- 81
2019-12-01 14:00:00 8.1 15 Este 21 Este 0 -- -- 92
2019-12-01 13:00:00 8.5 15 Este 22 Este 0 -- -- 91
2019-12-01 12:00:00 7.9 13 Este 19 Este 0 -- -- 92
2019-12-01 11:00:00 7.5 10 Sudeste 19 Este 0 -- -- 96
2019-12-01 10:00:00 6.8 10 Sudeste 16 Este 0.2 -- -- 97
2019-12-01 09:00:00 6.2 10 Sudeste 15 Sudeste 0.4 -- -- 96
2019-12-01 08:00:00 5.7 6 Sudeste 12 Sudeste 0.8 -- -- 95
2019-12-01 07:00:00 5.7 10 Sudeste 15 Sudeste 0 -- -- 94
2019-12-01 06:00:00 5.4 8 Sudeste 11 Sudeste 0.4 -- -- 95
2019-12-01 05:00:00 5.4 6 Sudeste 14 Sur 0.4 -- -- 95
2019-12-01 04:00:00 5.7 10 Sudeste 14 Sudeste 0.2 -- -- 93
2019-12-01 03:00:00 5.4 9 Sudeste 12 Sur 0 -- -- 96
2019-12-01 02:00:00 5 8 Sur 15 Sudoeste 0 -- -- 96
2019-12-01 01:00:00 4.7 5 Sur 13 Sur 0 -- -- 96
2019-12-01 00:00:00 4.7 8 Sudeste 12 Sudeste 0 -- -- 96
2019-11-30 23:00:00 5.1 9 Sur 13 Sudoeste 0 -- -- 94
2019-11-30 22:00:00 5.1 7 Sudoeste 15 Sur 0 -- -- 92
2019-11-30 21:00:00 6 9 Sudoeste 22 Oeste 0 -- -- 90
2019-11-30 20:00:00 6.6 17 Oeste 23 Oeste 0 -- -- 89
2019-11-30 19:00:00 6.4 6 Sudoeste 14 Oeste 0 -- -- 91
2019-11-30 18:00:00 7.4 12 Sudoeste 26 Oeste 0 -- -- 87
2019-11-30 17:00:00 9.2 22 Oeste 41 Oeste 0 -- -- 80
2019-11-30 16:00:00 8.9 27 Oeste 44 Oeste 0.6 -- -- 86
2019-11-30 15:00:00 9.6 25 Oeste 53 Oeste 0.8 -- -- 89
2019-11-30 14:00:00 10.4 28 Oeste 46 Oeste 0.2 -- -- 90
2019-11-30 13:00:00 12 28 Sudoeste 46 Sur 1.6 -- -- 97
2019-11-30 12:00:00 12.5 29 Sudoeste 46 Sur 0 -- -- 91
2019-11-30 11:00:00 12.3 31 Sur 46 Sur 0 -- -- 92
2019-11-30 10:00:00 12 28 Sudoeste 42 Sudoeste 0.2 -- -- 92
2019-11-30 09:00:00 11.9 21 Sudoeste 33 Sur 0 -- -- 91
2019-11-30 08:00:00 11.6 22 Sudoeste 40 Sur 0 -- -- 92
2019-11-30 07:00:00 11.6 20 Sudoeste 31 Sudoeste 0 -- -- 92
2019-11-30 06:00:00 10.9 9 Sur 32 Sudoeste 0 -- -- 95
2019-11-30 05:00:00 11.3 23 Sudoeste 31 Sudoeste 0 -- -- 95
2019-11-30 04:00:00 11.9 17 Sudoeste 28 Sudoeste 0 -- -- 98
2019-11-30 03:00:00 11.6 13 Sudoeste 18 Sudoeste 0 -- -- 99
2019-11-30 02:00:00 11.5 7 Sur 12 Sur 0 -- -- 99
2019-11-30 01:00:00 11.6 10 Sudoeste 15 Sur 0.2 -- -- 99
2019-11-30 00:00:00 11.6 7 Sur 13 Sur 0.4 -- -- 98
2019-11-29 23:00:00 11.7 11 Sudoeste 17 Sur 0.6 -- -- 98
2019-11-29 22:00:00 11.4 8 Sur 12 Sur 2.4 -- -- 97
2019-11-29 21:00:00 11.5 4 Sur 6 Sur 1.4 -- -- 94
2019-11-29 20:00:00 11.7 5 Sur 7 Sur 0 -- -- 90
2019-11-29 19:00:00 12.1 6 Sur 10 Sudoeste 0 -- -- 89
2019-11-29 18:00:00 12.3 9 Sudoeste 21 Sudoeste 0 -- -- 86
2019-11-29 17:00:00 14.3 16 Oeste 25 Oeste 0 -- -- 79
2019-11-29 16:00:00 15.1 15 Oeste 22 Oeste 0 -- -- 74
2019-11-29 15:00:00 15.6 14 Oeste 23 Oeste 0 -- -- 71
2019-11-29 14:00:00 16.3 14 Oeste 27 Sudoeste 0 -- -- 71
2019-11-29 13:00:00 14.6 13 Oeste 18 Oeste 0 -- -- 81
2019-11-29 12:00:00 13.3 5 Oeste 12 Oeste 0 -- -- 88
2019-11-29 11:00:00 12.3 3 Oeste 9 Oeste 0 -- -- 94
2019-11-29 10:00:00 11.7 0 Calma 12 Oeste 0 -- -- 96
2019-11-29 09:00:00 11.2 6 Oeste 9 Sudoeste 0 -- -- 97
2019-11-29 08:00:00 11.2 0 Calma 8 Sudoeste 0 -- -- 97
2019-11-29 07:00:00 11.2 2 Sudoeste 20 Sudoeste 0 -- -- 97
2019-11-29 06:00:00 11.3 14 Sudoeste 22 Sudoeste 0 -- -- 96
2019-11-29 05:00:00 11.5 14 Sudoeste 30 Sudoeste 0 -- -- 95
2019-11-29 04:00:00 11.5 21 Sudoeste 31 Sudoeste 0 -- -- 95
2019-11-29 03:00:00 11.8 24 Sudoeste 35 Sudoeste 0 -- -- 91
2019-11-29 02:00:00 11.6 25 Sudoeste 41 Sudoeste 0 -- -- 92
2019-11-29 01:00:00 11.8 25 Sudoeste 36 Sudoeste 0 -- -- 91
2019-11-29 00:00:00 11.5 18 Sudoeste 41 Sudoeste 0 -- -- 90
2019-11-28 23:00:00 11.6 28 Sudoeste 44 Sudoeste 0 -- -- 88
2019-11-28 22:00:00 11.3 27 Sudoeste 43 Sudoeste 0 -- -- 89
2019-11-28 21:00:00 11.9 26 Sudoeste 43 Sudoeste 0 -- -- 83
2019-11-28 20:00:00 11.8 24 Sudoeste 36 Sudoeste 0 -- -- 81
2019-11-28 19:00:00 11.5 18 Sudoeste 38 Sudoeste 0 -- -- 81
2019-11-28 18:00:00 12.3 28 Sudoeste 46 Sudoeste 0 -- -- 79
2019-11-28 17:00:00 12.8 27 Sudoeste 46 Sudoeste 0 -- -- 77
2019-11-28 16:00:00 12.9 30 Sudoeste 49 Sudoeste 0 -- -- 76
2019-11-28 15:00:00 13 38 Sudoeste 51 Sudoeste 0 -- -- 74
2019-11-28 14:00:00 12.8 28 Sudoeste 42 Sudoeste 0 -- -- 77
2019-11-28 13:00:00 11.8 22 Sudoeste 45 Sudoeste 0 -- -- 84
2019-11-28 12:00:00 11.7 33 Sudoeste 46 Sudoeste 0 -- -- 85
2019-11-28 11:00:00 11.4 27 Sudoeste 41 Sudoeste 0 -- -- 84
2019-11-28 10:00:00 10.7 17 Sudoeste 29 Sudoeste 0 -- -- 86
2019-11-28 09:00:00 10.2 22 Sudoeste 33 Sudoeste 0 -- -- 88
2019-11-28 08:00:00 9.9 20 Sudoeste 32 Sudoeste 0 -- -- 90
2019-11-28 07:00:00 9.9 18 Sudoeste 33 Sudoeste 0 -- -- 89
2019-11-28 06:00:00 9.5 17 Sudoeste 25 Sudoeste 0 -- -- 90
2019-11-28 05:00:00 9.2 19 Sudoeste 36 Sudoeste 0 -- -- 90
2019-11-28 04:00:00 9.2 17 Sudoeste 31 Sudoeste 0 -- -- 90
2019-11-28 03:00:00 9.5 19 Sudoeste 34 Sudoeste 0 -- -- 88
2019-11-28 02:00:00 9.4 23 Sudoeste 34 Sudoeste 0 -- -- 90
2019-11-28 01:00:00 9.4 19 Sudoeste 33 Sudoeste 0 -- -- 91
2019-11-28 00:00:00 9 22 Sudoeste 38 Sudoeste 0 -- -- 89
2019-11-27 23:00:00 8.4 27 Sudoeste 42 Sudoeste 0 -- -- 92
2019-11-27 22:00:00 8.7 27 Sudoeste 39 Sudoeste 0.2 -- -- 96
2019-11-27 21:00:00 8.7 18 Sudoeste 42 Sudoeste 0 -- -- 94
2019-11-27 20:00:00 9.9 37 Sudoeste 49 Sudoeste 0 -- -- 83
2019-11-27 19:00:00 10.4 31 Sudoeste 46 Sudoeste 0 -- -- 77
2019-11-27 18:00:00 10.8 35 Sudoeste 49 Sudoeste 0 -- -- 74
2019-11-27 17:00:00 11.3 37 Sudoeste 55 Sudoeste 0 -- -- 74
2019-11-27 16:00:00 11.5 39 Sudoeste 56 Sudoeste 0 -- -- 74
2019-11-27 15:00:00 11.4 38 Sudoeste 61 Sudoeste 0 -- -- 74
2019-11-27 14:00:00 11.8 39 Sudoeste 53 Sudoeste 0 -- -- 75
2019-11-27 06:00:00 -- -- -- -- -- -- -- -- --
2019-11-27 05:00:00 -- -- -- -- -- -- -- -- --
2019-11-27 04:00:00 -- -- -- -- -- -- -- -- --
2019-11-27 03:00:00 8.1 20 Sudoeste 41 Sudoeste 0 -- -- 87
2019-11-27 02:00:00 9 30 Sudoeste 42 Sudoeste 0 -- -- 87
2019-11-27 01:00:00 8.6 21 Sudoeste 50 Sudoeste 0 -- -- 92
2019-11-27 00:00:00 9.2 39 Sudoeste 51 Sudoeste 0 -- -- 88
2019-11-26 23:00:00 9.9 31 Oeste 51 Oeste 0 -- -- 86
2019-11-26 22:00:00 10.2 39 Sudoeste 57 Sudoeste 0.8 -- -- 93
2019-11-26 21:00:00 11 39 Sudoeste 53 Sudoeste 0.2 -- -- 90
2019-11-26 20:00:00 12.7 38 Sudoeste 53 Sudoeste 0 -- -- 76
2019-11-26 19:00:00 12.7 40 Sudoeste 64 Sudoeste 0 -- -- 77
2019-11-26 18:00:00 13.2 40 Sudoeste 65 Sudoeste 0 -- -- 79
2019-11-26 17:00:00 14 36 Sudoeste 61 Sudoeste 0 -- -- 86
2019-11-26 16:00:00 15 35 Sudoeste 58 Sudoeste 0 -- -- 78
2019-11-26 15:00:00 15.2 28 Sudoeste 43 Sudoeste 0 -- -- 80
2019-11-26 14:00:00 14.8 26 Sur 47 Sur 0 -- -- 82
2019-11-26 13:00:00 13.3 28 Sur 42 Sur 0.2 -- -- 92
2019-11-26 12:00:00 13.1 27 Sudoeste 49 Sur 0 -- -- 89
2019-11-26 11:00:00 13.9 30 Sudoeste 48 Sudoeste 0 -- -- 84
2019-11-26 10:00:00 11.2 14 Sudoeste 24 Sur 0 -- -- 93
2019-11-26 09:00:00 10.3 11 Sur 19 Sur 0.6 -- -- 96
2019-11-26 08:00:00 10.5 14 Sur 21 Sudoeste 0 -- -- 93
2019-11-26 07:00:00 10 6 Sur 18 Sur 0 -- -- 93
2019-11-26 06:00:00 10 9 Sur 14 Sur 0 -- -- 92
2019-11-26 05:00:00 9.9 10 Sur 14 Sur 0 -- -- 92
2019-11-26 04:00:00 9.8 8 Sudeste 15 Sur 0 -- -- 93
2019-11-26 03:00:00 9.5 8 Sudeste 15 Sur 0 -- -- 94
2019-11-26 02:00:00 9.7 12 Sudoeste 22 Sudoeste 0 -- -- 93
2019-11-26 01:00:00 8.9 11 Sudoeste 15 Sudoeste 0 -- -- 96
2019-11-26 00:00:00 8.6 10 Sur 14 Sur 0 -- -- 95
2019-11-25 23:00:00 9.2 7 Sur 14 Sur 0 -- -- 93
2019-11-25 22:00:00 9 8 Sur 12 Sur 0 -- -- 91
2019-11-25 21:00:00 9.3 8 Sur 15 Sudoeste 0 -- -- 90
2019-11-25 20:00:00 10 10 Sudoeste 22 Sudoeste 0 -- -- 86
2019-11-25 19:00:00 9.9 8 Sudoeste 15 Sudoeste 0 -- -- 86
2019-11-25 18:00:00 11 14 Sudoeste 30 Sudoeste 0 -- -- 80
2019-11-25 17:00:00 12.4 26 Sudoeste 39 Sudoeste 0 -- -- 74
2019-11-25 16:00:00 12.9 25 Sudoeste 44 Sudoeste 0 -- -- 75
2019-11-25 15:00:00 13.4 20 Oeste 40 Sudoeste 0 -- -- 70
2019-11-25 14:00:00 13.5 24 Oeste 44 Oeste 0 -- -- 71
2019-11-25 13:00:00 14 30 Oeste 46 Oeste 0 -- -- 71
2019-11-25 12:00:00 12.4 31 Sudoeste 43 Oeste 0 -- -- 83
2019-11-25 11:00:00 11.6 21 Sudoeste 27 Sudoeste 0 -- -- 92
2019-11-25 10:00:00 10.5 10 Sudoeste 25 Sudoeste 0.8 -- -- 97
2019-11-25 09:00:00 10.2 15 Sudoeste 19 Sur 0 -- -- 96
2019-11-25 08:00:00 10.1 13 Sudoeste 20 Sudoeste 0 -- -- 94
2019-11-25 07:00:00 10.4 13 Sudoeste 30 Sudoeste 0 -- -- 91
2019-11-25 06:00:00 10.4 26 Sudoeste 36 Sudoeste 0 -- -- 91
2019-11-25 05:00:00 10.5 25 Sudoeste 33 Sudoeste 0 -- -- 92
2019-11-25 04:00:00 10.1 10 Sudoeste 28 Sudoeste 0 -- -- 94
2019-11-25 03:00:00 10.3 15 Sudoeste 41 Sudoeste 0 -- -- 95
2019-11-25 02:00:00 10.2 25 Sudoeste 34 Sudoeste 0.6 -- -- 97
2019-11-25 01:00:00 8.9 17 Sudoeste 28 Sudoeste 0.8 -- -- 96
2019-11-25 00:00:00 8.9 19 Sudoeste 29 Sur 0.4 -- -- 95
2019-11-24 23:00:00 8.3 19 Sudoeste 31 Sudoeste 0.6 -- -- 95
2019-11-24 22:00:00 8.1 19 Sur 25 Sur 0.2 -- -- 91
2019-11-24 21:00:00 8.7 12 Sur 20 Sur 0 -- -- 88
2019-11-24 20:00:00 8.6 10 Sur 18 Sur 0 -- -- 90
2019-11-24 19:00:00 8.1 13 Sudoeste 19 Sudoeste 0 -- -- 92
2019-11-24 18:00:00 9 15 Sudoeste 26 Sudoeste 0 -- -- 83
2019-11-24 17:00:00 9.5 18 Sudoeste 30 Sudoeste 0 -- -- 79
2019-11-24 16:00:00 9.4 22 Sudoeste 31 Sudoeste 0 -- -- 77
2019-11-24 15:00:00 9.1 27 Sudoeste 38 Sudoeste 0 -- -- 77
2019-11-24 14:00:00 9.3 23 Sudoeste 33 Sudoeste 0 -- -- 75
2019-11-24 13:00:00 8.3 19 Sudoeste 30 Sudoeste 0 -- -- 80
2019-11-24 12:00:00 7.2 16 Sudoeste 21 Sudoeste 0 -- -- 84
2019-11-24 11:00:00 5.9 9 Sudoeste 13 Sudoeste 0 -- -- 92
2019-11-24 10:00:00 4.6 4 Sur 9 Sudoeste 0 -- -- 96
2019-11-24 09:00:00 3.2 4 Sudoeste 13 Sudoeste 0 -- -- 97
2019-11-24 08:00:00 2.8 8 Sudoeste 29 Oeste 0 -- -- 96
2019-11-24 07:00:00 3.2 19 Oeste 31 Oeste 0 -- -- 95
2019-11-24 06:00:00 3.3 19 Oeste 27 Oeste 0 -- -- 95
2019-11-24 05:00:00 2.7 9 Oeste 24 Oeste 0 -- -- 95
2019-11-24 04:00:00 3.2 17 Oeste 28 Oeste 0 -- -- 95
2019-11-24 03:00:00 3.5 16 Oeste 27 Oeste 0 -- -- 94
2019-11-24 02:00:00 4.2 18 Oeste 26 Oeste 0 -- -- 94
2019-11-24 01:00:00 4 14 Sudoeste 24 Oeste 0 -- -- 95
2019-11-24 00:00:00 4 6 Sudoeste 18 Sudoeste 0 -- -- 93
2019-11-23 23:00:00 4.3 12 Sudoeste 22 Sudoeste 0 -- -- 90
2019-11-23 22:00:00 5.3 21 Sudoeste 27 Oeste 0 -- -- 86
2019-11-23 21:00:00 5.8 19 Oeste 32 Oeste 0 -- -- 82
2019-11-23 20:00:00 6 13 Oeste 23 Sudoeste 0 -- -- 80
2019-11-23 19:00:00 6.9 14 Sudoeste 35 Oeste 0 -- -- 76
2019-11-23 18:00:00 8.5 24 Oeste 44 Oeste 0 -- -- 70
2019-11-23 17:00:00 11.2 31 Oeste 47 Oeste 0 -- -- 60
2019-11-23 16:00:00 10.2 19 Oeste 42 Oeste 0 -- -- 68
2019-11-23 15:00:00 11.7 31 Oeste 47 Oeste 0 -- -- 59
2019-11-23 14:00:00 11.4 32 Oeste 50 Oeste 0 -- -- 61
2019-11-23 13:00:00 10.1 32 Oeste 48 Oeste 0 -- -- 68
2019-11-23 12:00:00 9.6 32 Oeste 50 Oeste 0 -- -- 70
2019-11-23 11:00:00 8.2 31 Oeste 48 Oeste 0 -- -- 75
2019-11-23 10:00:00 6.2 29 Oeste 40 Sudoeste 0 -- -- 81
2019-11-23 09:00:00 4.6 27 Oeste 44 Oeste 0 -- -- 82
2019-11-23 08:00:00 4.3 30 Oeste 48 Sudoeste 0 -- -- 84
2019-11-23 07:00:00 4.6 30 Oeste 55 Sudoeste 0 -- -- 85
2019-11-23 06:00:00 5.2 39 Oeste 57 Oeste 0 -- -- 83
2019-11-23 05:00:00 5.6 43 Oeste 72 Oeste 0 -- -- 82
2019-11-23 04:00:00 5.9 45 Oeste 69 Oeste 0 -- -- 81
2019-11-23 03:00:00 6 42 Oeste 62 Sudoeste 0.2 -- -- 84
2019-11-23 02:00:00 6.6 42 Oeste 66 Oeste 0 -- -- 80
2019-11-23 01:00:00 6.5 43 Oeste 65 Oeste 0 -- -- 85
2019-11-23 00:00:00 7 43 Sudoeste 62 Sudoeste 0 -- -- 81
2019-11-22 23:00:00 7.9 42 Sudoeste 58 Sudoeste 0 -- -- 86
2019-11-22 22:00:00 7.8 36 Sudoeste 58 Sudoeste 0.2 -- -- 88
2019-11-22 21:00:00 8.7 39 Sudoeste 57 Sudoeste 0 -- -- 84
2019-11-22 20:00:00 8.6 31 Sudoeste 47 Sudoeste 0 -- -- 83
2019-11-22 19:00:00 8.5 29 Sudoeste 52 Sudoeste 0 -- -- 83
2019-11-22 18:00:00 8.6 36 Sudoeste 62 Sudoeste 0 -- -- 86
2019-11-22 17:00:00 11 43 Sudoeste 63 Sudoeste 0 -- -- 76
2019-11-22 16:00:00 10.9 45 Sudoeste 69 Sudoeste 0.2 -- -- 86
2019-11-22 15:00:00 11.5 39 Sudoeste 56 Sudoeste 2.4 -- -- 91
2019-11-22 14:00:00 12.9 39 Sudoeste 68 Sudoeste 0 -- -- 80
2019-11-22 13:00:00 11.8 40 Sudoeste 63 Sur 0.8 -- -- 89
2019-11-22 12:00:00 11.4 40 Sur 63 Sur 0 -- -- 84
2019-11-22 11:00:00 10.6 26 Sur 42 Sur 0 -- -- 86
2019-11-22 10:00:00 8.4 21 Sudeste 31 Sudeste 0 -- -- 88
2019-11-22 09:00:00 7.9 20 Sur 38 Sur 0 -- -- 91
2019-11-22 08:00:00 7.3 21 Sur 30 Sur 1 -- -- 95
2019-11-22 07:00:00 7.1 17 Sur 27 Sur 1.6 -- -- 96
2019-11-22 06:00:00 7 13 Sur 20 Sur 0.8 -- -- 96
2019-11-22 05:00:00 6.7 11 Sudeste 16 Sudeste 0 -- -- 95
2019-11-22 04:00:00 6.6 8 Sudeste 13 Sudeste 0 -- -- 95
2019-11-22 03:00:00 6.5 9 Sudeste 13 Sudeste 0 -- -- 94
2019-11-22 02:00:00 6.6 8 Sur 10 Sur 0 -- -- 94
2019-11-22 01:00:00 6.7 7 Sur 10 Sur 0 -- -- 93
2019-11-22 00:00:00 6.7 7 Sudoeste 18 Sudoeste 0 -- -- 93
2019-11-21 23:00:00 6.5 5 Sur 11 Sur 0 -- -- 91
2019-11-21 22:00:00 6.1 5 Sur 12 Sudeste 0 -- -- 91
2019-11-21 21:00:00 5.7 8 Sudeste 10 Sudeste 0 -- -- 89
2019-11-21 20:00:00 6.3 6 Sudeste 8 Sudeste 0 -- -- 85
2019-11-21 19:00:00 5.9 5 Sudoeste 10 Sudoeste 0 -- -- 87
2019-11-21 18:00:00 7.4 10 Sudoeste 20 Oeste 0 -- -- 79
2019-11-21 17:00:00 10.6 13 Oeste 34 Oeste 0 -- -- 68
2019-11-21 16:00:00 9.7 19 Oeste 31 Oeste 0 -- -- 67
2019-11-21 15:00:00 11.1 26 Sudoeste 35 Sudoeste 0 -- -- 61
2019-11-21 14:00:00 9.5 15 Oeste 28 Oeste 0 -- -- 74
2019-11-21 13:00:00 9 15 Oeste 29 Sudoeste 0 -- -- 73
2019-11-21 12:00:00 9.8 16 Sudoeste 24 Sudoeste 0 -- -- 80
2019-11-21 11:00:00 6.9 20 Sudoeste 26 Sudoeste 0 -- -- 91
2019-11-21 10:00:00 6.5 9 Sudoeste 15 Sudoeste 0 -- -- 95
2019-11-21 09:00:00 5.6 8 Sur 14 Sudoeste 0 -- -- 96
2019-11-21 08:00:00 -- -- -- -- -- -- -- -- --
2019-11-21 07:00:00 -- -- -- -- -- -- -- -- --
2019-11-21 06:00:00 -- -- -- -- -- -- -- -- --
2019-11-21 05:00:00 -- -- -- -- -- -- -- -- --
2019-11-21 04:00:00 -- -- -- -- -- -- -- -- --
2019-11-21 03:00:00 -- -- -- -- -- -- -- -- --
2019-11-21 02:00:00 -- -- -- -- -- -- -- -- --
2019-11-21 01:00:00 -- -- -- -- -- -- -- -- --
2019-11-21 00:00:00 -- -- -- -- -- -- -- -- --
2019-11-20 23:00:00 -- -- -- -- -- -- -- -- --
2019-11-20 22:00:00 -- -- -- -- -- -- -- -- --
2019-11-20 21:00:00 -- -- -- -- -- -- -- -- --
2019-11-20 20:00:00 -- -- -- -- -- -- -- -- --
2019-11-20 19:00:00 6.8 9 Sudoeste 18 Sudoeste 0 -- -- 91
2019-11-20 18:00:00 7 10 Sudoeste 18 Sudoeste 0 -- -- 92
2019-11-20 17:00:00 7.1 5 Sur 13 Sudoeste 0 -- -- 96
2019-11-20 16:00:00 6.6 7 Sur 11 Sur 0.4 -- -- 96
2019-11-20 15:00:00 6.4 9 Sudoeste 17 Sudoeste 1.4 -- -- 96
2019-11-20 14:00:00 6.5 12 Sudoeste 19 Sudoeste 0.6 -- -- 97
2019-11-20 13:00:00 6.2 8 Sur 19 Sur 1.2 -- -- 96
2019-11-20 12:00:00 6 10 Sur 16 Sur 1.4 -- -- 97
2019-11-20 11:00:00 5.6 10 Sur 14 Sur 0.8 -- -- 97
2019-11-20 10:00:00 5 9 Sudeste 12 Sudeste 0.4 -- -- 97
2019-11-20 09:00:00 4.7 7 Sudeste 12 Sur 0.8 -- -- 97
2019-11-20 08:00:00 4.8 7 Sudeste 14 Sudeste 2.8 -- -- 97
2019-11-20 07:00:00 4.8 5 Sudeste 8 Sudeste 0.6 -- -- 96
2019-11-20 06:00:00 4.7 3 Sudeste 10 Sudeste 0.2 -- -- 95
2019-11-20 05:00:00 4.9 6 Sudeste 12 Sudeste 0 -- -- 93
2019-11-20 04:00:00 4.8 5 Sudeste 12 Este 0 -- -- 92
2019-11-20 03:00:00 5 2 Este 5 Este 0 -- -- 90
2019-11-20 02:00:00 5.1 3 Este 5 Este 0 -- -- 89
2019-11-20 01:00:00 5.2 0 Calma 6 Sudeste 0 -- -- 87
2019-11-20 00:00:00 5.6 5 Sudeste 11 Sudeste 0 -- -- 86
2019-11-19 23:00:00 5.8 5 Sudeste 9 Sudeste 0 -- -- 85
2019-11-19 22:00:00 5.6 3 Este 10 Sudeste 0 -- -- 89
2019-11-19 21:00:00 5.8 5 Este 9 Este 0 -- -- 90
2019-11-19 20:00:00 5.9 5 Este 12 Este 0 -- -- 89
2019-11-19 19:00:00 6.2 6 Este 9 Este 0 -- -- 89
2019-11-19 18:00:00 6.5 4 Este 8 Este 0 -- -- 86
2019-11-19 17:00:00 7.4 5 Sudeste 8 Sudeste 0 -- -- 81
2019-11-19 16:00:00 8.7 2 Sur 4 Sudoeste 0 -- -- 73
2019-11-19 15:00:00 7.9 0 Calma 5 Sudeste 0 -- -- 86
2019-11-19 14:00:00 6 2 Nordeste 6 Sudeste 0 -- -- 91
2019-11-19 13:00:00 3.4 0 Calma 5 Sur 0 -- -- 94
2019-11-19 12:00:00 2 2 Sur 5 Sudeste 0 -- -- 96
2019-11-19 11:00:00 0.4 0 Calma 5 Este 0 -- -- 97
2019-11-19 10:00:00 -0.7 4 Este 6 Este 0 -- -- 98
2019-11-19 09:00:00 -1 3 Este 5 Este 0 -- -- 98
2019-11-19 08:00:00 -1.9 0 Calma 4 Sudeste 0 -- -- 97
2019-11-19 07:00:00 -2 0 Calma 6 Nordeste 0 -- -- 97
2019-11-19 06:00:00 -1.6 5 Nordeste 7 Nordeste 0 -- -- 97
2019-11-19 05:00:00 -0.9 2 Este 5 Sur 0 -- -- 96
2019-11-19 04:00:00 0.5 3 Sudeste 11 Este 0 -- -- 95
2019-11-19 03:00:00 0.7 5 Nordeste 9 Este 0 -- -- 96
2019-11-19 02:00:00 0.6 4 Nordeste 7 Nordeste 0 -- -- 95
2019-11-19 01:00:00 0.3 5 Nordeste 12 Norte 0 -- -- 95
2019-11-19 00:00:00 0.9 8 Nordeste 10 Nordeste 0 -- -- 94
2019-11-18 23:00:00 1.1 5 Norte 10 Nordeste 0 -- -- 94
2019-11-18 22:00:00 3.1 10 Norte 12 Norte 0 -- -- 87
2019-11-18 21:00:00 3.3 3 Noroeste 8 Nordeste 0 -- -- 86
2019-11-18 20:00:00 4.7 6 Norte 9 Norte 0 -- -- 85
2019-11-18 19:00:00 6.3 0 Calma -- -- 0 -- -- 79
2019-11-18 18:00:00 8.8 0 Calma -- -- 0 -- -- 64
2019-11-18 17:00:00 9.7 0 Calma 14 Nordeste 0 -- -- 61
2019-11-18 16:00:00 9.7 9 Norte 20 Nordeste 0 -- -- 62
2019-11-18 15:00:00 10.8 8 Norte 21 Noroeste 0 -- -- 58
2019-11-18 14:00:00 10.6 8 Norte 19 Noroeste 0 -- -- 61
2019-11-18 13:00:00 9.6 10 Noroeste 20 Norte 0 -- -- 67
2019-11-18 12:00:00 7.8 9 Norte 18 Noroeste 0 -- -- 72
2019-11-18 11:00:00 5.9 9 Noroeste 14 Noroeste 0 -- -- 78
2019-11-18 10:00:00 2.8 3 Oeste 8 Noroeste 0 -- -- 90
2019-11-18 09:00:00 0.5 8 Noroeste 10 Noroeste 0 -- -- 95
2019-11-18 08:00:00 0 8 Noroeste 11 Noroeste 0 -- -- 96
2019-11-18 07:00:00 -0.7 4 Oeste 8 Oeste 0 -- -- 93
2019-11-18 06:00:00 1.3 2 Norte 10 Norte 0 -- -- 90
2019-11-18 05:00:00 2.1 5 Nordeste 12 Nordeste 0 -- -- 90
2019-11-18 04:00:00 1.3 2 Nordeste 9 Noroeste 0 -- -- 94
2019-11-18 03:00:00 1 3 Nordeste 22 Noroeste 0 -- -- 95
2019-11-18 02:00:00 1.4 15 Noroeste 21 Noroeste 0 -- -- 94
2019-11-18 01:00:00 1.8 16 Noroeste 21 Noroeste 0 -- -- 93
2019-11-18 00:00:00 1.9 12 Oeste 15 Oeste 0 -- -- 93
2019-11-17 23:00:00 1.9 9 Oeste 14 Oeste 0 -- -- 92
2019-11-17 22:00:00 2.6 5 Oeste 21 Noroeste 0 -- -- 88
2019-11-17 21:00:00 4.1 15 Noroeste 20 Noroeste 0 -- -- 83
2019-11-17 20:00:00 4.3 11 Oeste 19 Noroeste 0 -- -- 87
2019-11-17 19:00:00 6.8 19 Noroeste 28 Oeste 0 -- -- 80
2019-11-17 18:00:00 8.2 15 Oeste 39 Oeste 0 -- -- 80
2019-11-17 17:00:00 10.5 30 Oeste 45 Oeste 0 -- -- 70
2019-11-17 16:00:00 11.7 33 Oeste 57 Oeste 0 -- -- 67
2019-11-17 15:00:00 10.5 28 Oeste 52 Oeste 0 -- -- 83
2019-11-17 14:00:00 9.1 25 Oeste 41 Oeste 0 -- -- 93
2019-11-17 13:00:00 8.3 30 Sudoeste 43 Sudoeste 0 -- -- 95
2019-11-17 12:00:00 7.5 25 Sudoeste 34 Sudoeste 0.2 -- -- 97
2019-11-17 11:00:00 6.4 12 Sudoeste 20 Sudoeste 1.6 -- -- 97
2019-11-17 10:00:00 5.5 9 Sudoeste 18 Sudoeste 0.8 -- -- 96
2019-11-17 09:00:00 5.1 8 Sudoeste 18 Sudoeste 0 -- -- 96
2019-11-17 08:00:00 4.5 10 Sudoeste 17 Sur 0 -- -- 96
2019-11-17 07:00:00 4 10 Sur 16 Sur 0.4 -- -- 94
2019-11-17 06:00:00 4.1 6 Sur 11 Sur 0 -- -- 89
2019-11-17 05:00:00 3.6 5 Sudeste 8 Sudoeste 0 -- -- 88
2019-11-17 04:00:00 3.1 3 Sudoeste 13 Sudoeste 0 -- -- 90
2019-11-17 03:00:00 2.5 8 Sudoeste 19 Oeste 0 -- -- 91
2019-11-17 02:00:00 2.6 12 Sudoeste 19 Sudoeste 0 -- -- 89
2019-11-17 01:00:00 2.8 14 Sudoeste 19 Sudoeste 0 -- -- 89
2019-11-17 00:00:00 3.4 7 Sudoeste 12 Sudoeste 0 -- -- 86
2019-11-16 23:00:00 3.2 6 Sudoeste 9 Sudoeste 0 -- -- 86
2019-11-16 22:00:00 3 6 Sudoeste 13 Sudoeste 0 -- -- 84
2019-11-16 21:00:00 3.2 10 Oeste 17 Oeste 0 -- -- 83
2019-11-16 20:00:00 4 13 Oeste 24 Oeste 0 -- -- 79
2019-11-16 19:00:00 4.5 13 Oeste 30 Sudoeste 0 -- -- 75
2019-11-16 18:00:00 6.5 22 Sudoeste 38 Sudoeste 0 -- -- 68
2019-11-16 17:00:00 9.3 24 Sudoeste 33 Sudoeste 0 -- -- 56
2019-11-16 16:00:00 8.9 19 Oeste 32 Oeste 0 -- -- 52
2019-11-16 15:00:00 10.1 23 Oeste 35 Oeste 0 -- -- 52
2019-11-16 14:00:00 8.6 26 Oeste 37 Oeste 0 -- -- 61
2019-11-16 13:00:00 8.9 19 Sudoeste 27 Sudoeste 0 -- -- 63
2019-11-16 12:00:00 6.9 10 Sudoeste 20 Sudoeste 0 -- -- 69
2019-11-16 11:00:00 4 13 Sudoeste 18 Sudoeste 0 -- -- 79
2019-11-16 10:00:00 1.4 8 Oeste 13 Oeste 0 -- -- 93
2019-11-16 09:00:00 -1 5 Sudoeste 7 Oeste 0 -- -- 95
2019-11-16 08:00:00 -1.9 5 Oeste 10 Oeste 0 -- -- 95
2019-11-16 07:00:00 -1.4 4 Oeste 8 Oeste 0 -- -- 95
2019-11-16 06:00:00 -1.4 4 Oeste 11 Oeste 0 -- -- 94
2019-11-16 05:00:00 -0.9 4 Oeste 15 Oeste 0 -- -- 92
2019-11-16 04:00:00 -0.9 9 Noroeste 17 Noroeste 0 -- -- 92
2019-11-16 03:00:00 -0.2 12 Noroeste 18 Noroeste 0 -- -- 90
2019-11-16 02:00:00 0.3 10 Noroeste 18 Noroeste 0 -- -- 89
2019-11-16 01:00:00 0.8 11 Noroeste 22 Noroeste 0 -- -- 89
2019-11-16 00:00:00 1.2 10 Noroeste 21 Noroeste 0 -- -- 86